Time;durP1;ratioP1;P1;durP2;ratioP2;P2;SDS_P1;SDS_P2;PMS_P1;PMS_P2;Temp;Humidity;BMP_temperature;BMP_pressure;BME280_temperature;BME280_humidity;BME280_pressure;Samples;Min_cycle;Max_cycle;Signal;HPM_P1;HPM_P2
2023/09/23 00:01:57;;;;;;;8.80;6.60;;;;;;;19.21;86.19;99234.48;131069;1251;107889;-77
2023/09/23 00:05:03;;;;;;;11.90;7.20;;;;;;;19.18;86.34;99232.42;131167;1250;107946;-76
2023/09/23 00:08:09;;;;;;;12.20;8.20;;;;;;;19.14;87.04;99219.06;131231;1250;106595;-76
2023/09/23 00:11:15;;;;;;;11.70;8.00;;;;;;;19.05;86.83;99216.26;131123;1251;107381;-76
2023/09/23 00:14:20;;;;;;;10.10;7.20;;;;;;;19.00;86.67;99216.27;131052;1254;106530;-76
2023/09/23 00:17:27;;;;;;;10.70;6.70;;;;;;;18.95;86.55;99215.39;131154;1250;107056;-76
2023/09/23 00:20:33;;;;;;;9.80;7.20;;;;;;;18.91;86.44;99223.60;131093;1250;107166;-77
2023/09/23 00:23:39;;;;;;;9.70;7.10;;;;;;;18.86;86.31;99231.59;131098;1254;107005;-76
2023/09/23 00:26:48;;;;;;;10.60;7.30;;;;;;;18.78;86.24;99227.97;131085;1256;107561;-77
2023/09/23 00:29:54;;;;;;;10.60;8.10;;;;;;;18.74;86.25;99230.48;131167;1254;107150;-76
2023/09/23 00:32:59;;;;;;;11.70;7.50;;;;;;;18.67;86.32;99232.98;131085;1251;108150;-77
2023/09/23 00:36:07;;;;;;;9.40;6.50;;;;;;;18.61;86.44;99237.80;131109;1254;107849;-76
2023/09/23 00:39:13;;;;;;;9.10;6.80;;;;;;;18.60;86.58;99229.82;131127;1251;106836;-76
2023/09/23 00:42:19;;;;;;;9.50;7.20;;;;;;;18.61;86.54;99233.09;131073;1251;108395;-76
2023/09/23 00:45:29;;;;;;;9.80;6.30;;;;;;;18.61;86.52;99243.61;131062;1251;106516;-76
2023/09/23 00:48:53;;;;;;;7.80;6.30;;;;;;;18.59;86.50;99254.66;131200;1254;109083;-78
2023/09/23 00:51:59;;;;;;;9.60;6.50;;;;;;;18.56;86.61;99257.27;131391;1254;106921;-76
2023/09/23 00:55:05;;;;;;;9.80;7.20;;;;;;;18.56;86.91;99248.14;131051;1256;109271;-77
2023/09/23 00:58:14;;;;;;;10.70;7.20;;;;;;;18.59;87.05;99237.63;131023;1254;107715;-76
2023/09/23 01:01:21;;;;;;;10.60;7.50;;;;;;;18.61;87.15;99237.64;131137;1254;106600;-76
2023/09/23 01:04:27;;;;;;;9.30;6.90;;;;;;;18.62;87.14;99247.22;130987;1256;108493;-77
2023/09/23 01:07:33;;;;;;;8.80;6.20;;;;;;;18.63;87.17;99237.90;131018;1251;108706;-77
2023/09/23 01:10:39;;;;;;;8.20;6.70;;;;;;;18.65;87.55;99242.77;131055;1256;107810;-77
2023/09/23 01:13:46;;;;;;;7.90;6.80;;;;;;;18.67;87.58;99247.77;130944;1255;106412;-76
2023/09/23 01:16:53;;;;;;;12.70;7.70;;;;;;;18.68;87.85;99238.55;130887;1256;105972;-76
2023/09/23 01:20:00;;;;;;;9.80;7.00;;;;;;;18.67;87.97;99245.11;130957;1256;108353;-77
2023/09/23 01:23:06;;;;;;;10.20;6.60;;;;;;;18.66;88.29;99252.40;131013;1256;107746;-77
2023/09/23 01:26:12;;;;;;;11.20;7.30;;;;;;;18.66;88.25;99257.69;130941;1256;107800;-77
2023/09/23 01:29:22;;;;;;;9.30;6.60;;;;;;;18.70;88.33;99247.59;131078;1257;107687;-77
2023/09/23 01:32:45;;;;;;;10.30;7.10;;;;;;;18.75;88.42;99265.64;130860;1259;107681;-77
2023/09/23 01:35:51;;;;;;;9.40;6.50;;;;;;;18.77;88.62;99271.10;131022;1256;107662;-77
2023/09/23 01:38:57;;;;;;;8.80;6.10;;;;;;;18.78;88.87;99272.73;131052;1256;107035;-77
2023/09/23 01:42:02;;;;;;;11.70;7.00;;;;;;;18.82;88.94;99275.77;130988;1255;107242;-76
2023/09/23 01:45:12;;;;;;;8.90;7.00;;;;;;;18.86;89.11;99265.53;130972;1256;106685;-77
2023/09/23 01:48:21;;;;;;;12.50;7.20;;;;;;;18.89;89.22;99271.34;130982;1254;106584;-76
2023/09/23 01:51:28;;;;;;;9.40;6.00;;;;;;;18.89;89.23;99274.86;130851;1256;216321;-77
2023/09/23 01:54:34;;;;;;;8.30;5.40;;;;;;;18.88;89.58;99269.31;130963;1256;107735;-77
2023/09/23 01:57:39;;;;;;;8.50;5.80;;;;;;;18.86;89.79;99256.34;130971;1253;106712;-77
2023/09/23 02:00:45;;;;;;;9.20;6.20;;;;;;;18.86;89.89;99266.06;130928;1256;107707;-77
2023/09/23 02:03:51;;;;;;;10.90;7.00;;;;;;;18.89;89.92;99274.70;131057;1254;108730;-77
2023/09/23 02:06:56;;;;;;;10.70;8.30;;;;;;;18.89;90.48;99276.15;131046;1256;106647;-77
2023/09/23 02:10:02;;;;;;;11.20;9.20;;;;;;;18.86;90.58;99274.63;131078;1264;107359;-76
2023/09/23 02:13:08;;;;;;;12.60;10.10;;;;;;;18.82;91.82;99294.38;131071;1251;106285;-77
2023/09/23 02:16:14;;;;;;;13.90;11.00;;;;;;;18.72;91.01;99304.60;131063;1254;107655;-77
2023/09/23 02:19:19;;;;;;;12.40;10.00;;;;;;;18.59;91.54;99306.77;131113;1254;106459;-77
2023/09/23 02:22:26;;;;;;;10.00;8.40;;;;;;;18.39;91.51;99313.44;131100;1254;108120;-78
2023/09/23 02:25:31;;;;;;;9.00;6.70;;;;;;;18.14;92.13;99313.01;131134;1250;106690;-77
2023/09/23 02:28:54;;;;;;;7.20;6.30;;;;;;;17.97;90.99;99312.06;131015;1256;108973;-77
2023/09/23 02:32:00;;;;;;;7.90;5.90;;;;;;;17.81;91.11;99317.70;131159;1254;107864;-77
2023/09/23 02:35:10;;;;;;;8.20;5.70;;;;;;;17.73;91.07;99321.52;131073;1255;108657;-77
2023/09/23 02:38:16;;;;;;;6.50;4.60;;;;;;;17.66;91.05;99327.67;131188;1257;106745;-77
2023/09/23 02:41:22;;;;;;;6.50;4.80;;;;;;;17.61;90.80;99332.41;131048;1254;107889;-77
2023/09/23 02:44:45;;;;;;;6.00;5.30;;;;;;;17.53;91.05;99330.61;130906;1256;109046;-76
2023/09/23 02:48:13;;;;;;;7.00;5.80;;;;;;;17.44;91.09;99333.61;131207;1255;108217;-76
2023/09/23 02:51:19;;;;;;;5.40;4.80;;;;;;;17.30;91.35;99329.52;131114;1256;107716;-76
2023/09/23 02:54:26;;;;;;;8.10;4.50;;;;;;;17.16;91.55;99342.73;131042;1256;107277;-77
2023/09/23 02:57:32;;;;;;;6.10;4.50;;;;;;;17.04;91.40;99347.96;131147;1251;106715;-77
2023/09/23 03:00:40;;;;;;;6.10;4.70;;;;;;;16.96;90.97;99356.60;131137;1254;106691;-77
2023/09/23 03:03:47;;;;;;;5.40;4.60;;;;;;;16.96;90.58;99361.61;131148;1256;106512;-77
2023/09/23 03:06:56;;;;;;;6.10;4.10;;;;;;;16.96;90.44;99363.36;131154;1257;106949;-77
2023/09/23 03:10:03;;;;;;;5.00;4.20;;;;;;;16.86;90.83;99358.88;131149;1250;106744;-77
2023/09/23 03:13:11;;;;;;;4.90;4.00;;;;;;;16.71;91.34;99341.90;131152;1255;107763;-76
2023/09/23 03:16:28;;;;;;;4.90;4.20;;;;;;;16.60;91.19;99357.35;131021;1257;107502;-77
2023/09/23 03:19:34;;;;;;;7.20;4.40;;;;;;;16.61;90.91;99366.85;131048;1256;106603;-78
2023/09/23 03:22:40;;;;;;;7.00;4.40;;;;;;;16.63;91.07;99376.42;130997;1251;108365;-77
2023/09/23 03:25:47;;;;;;;6.10;4.40;;;;;;;16.55;90.88;99374.27;131059;1256;106689;-77
2023/09/23 03:28:53;;;;;;;5.10;4.20;;;;;;;16.54;90.94;99384.29;131088;1251;108562;-77
2023/09/23 03:32:00;;;;;;;5.50;4.30;;;;;;;16.58;90.77;99380.77;131091;1255;108647;-77
2023/09/23 03:35:09;;;;;;;6.70;4.70;;;;;;;16.66;90.65;99378.52;131113;1257;109159;-77
2023/09/23 03:38:15;;;;;;;5.40;3.90;;;;;;;16.66;90.44;99376.45;130994;1256;107827;-77
2023/09/23 03:41:21;;;;;;;5.40;3.90;;;;;;;16.73;90.48;99383.30;131073;1251;106819;-77
2023/09/23 03:44:27;;;;;;;4.90;3.80;;;;;;;16.78;90.37;99383.06;131030;1257;107842;-77
2023/09/23 03:47:32;;;;;;;5.10;4.00;;;;;;;16.77;90.26;99384.27;130965;1256;108628;-77
2023/09/23 03:50:38;;;;;;;4.70;4.00;;;;;;;16.79;90.16;99391.55;131086;1256;107708;-77
2023/09/23 03:53:45;;;;;;;6.50;4.00;;;;;;;16.80;90.10;99391.42;131093;1257;107573;-77
2023/09/23 03:56:50;;;;;;;5.70;3.90;;;;;;;16.75;90.15;99391.73;131038;1250;106915;-77
2023/09/23 03:59:56;;;;;;;5.00;3.80;;;;;;;16.77;90.25;99400.73;131099;1255;107649;-77
2023/09/23 04:03:02;;;;;;;5.80;4.10;;;;;;;16.78;90.15;99397.29;131012;1265;107192;-76
2023/09/23 04:06:08;;;;;;;5.70;4.20;;;;;;;16.77;90.35;99400.65;130950;1266;106607;-77
2023/09/23 04:09:13;;;;;;;4.60;4.10;;;;;;;16.79;90.40;99404.91;131081;1250;107549;-76
2023/09/23 04:12:19;;;;;;;5.30;3.90;;;;;;;16.67;90.85;99409.02;131109;1250;108541;-76
2023/09/23 04:15:25;;;;;;;4.90;3.80;;;;;;;16.63;90.71;99410.94;131068;1256;107007;-76
2023/09/23 04:18:31;;;;;;;4.60;3.80;;;;;;;16.70;90.57;99419.87;131113;1256;108028;-76
2023/09/23 04:21:37;;;;;;;4.70;4.00;;;;;;;16.78;90.48;99440.07;131085;1255;106577;-76
2023/09/23 04:24:42;;;;;;;4.60;3.40;;;;;;;16.84;90.42;99453.45;131090;1250;108409;-75
2023/09/23 04:27:49;;;;;;;3.90;2.90;;;;;;;16.86;90.33;99457.43;131079;1256;106911;-74
2023/09/23 04:30:57;;;;;;;4.40;3.60;;;;;;;16.83;90.35;99466.26;131769;1256;107643;-79
2023/09/23 04:34:03;;;;;;;4.20;3.60;;;;;;;16.84;90.51;99471.06;131325;1254;108583;-80
2023/09/23 04:37:08;;;;;;;4.60;3.80;;;;;;;16.83;90.66;99486.20;131142;1256;106918;-79
2023/09/23 04:40:15;;;;;;;4.30;3.30;;;;;;;16.81;91.45;99488.18;130979;1256;108383;-80
2023/09/23 04:43:21;;;;;;;3.70;3.30;;;;;;;16.69;91.45;99482.03;131201;1255;108542;-80
2023/09/23 04:46:32;;;;;;;3.20;2.80;;;;;;;16.59;91.91;99492.59;131769;1251;106478;-81
2023/09/23 04:49:37;;;;;;;5.80;3.00;;;;;;;16.59;91.76;99506.25;131740;1250;107546;-80
2023/09/23 04:52:44;;;;;;;4.60;3.10;;;;;;;16.59;91.91;99511.05;131536;1256;107557;-80
2023/09/23 04:55:49;;;;;;;4.90;3.10;;;;;;;16.53;92.27;99505.08;131242;1250;107155;-79
2023/09/23 04:58:58;;;;;;;3.10;2.80;;;;;;;16.52;92.15;99496.95;131110;1255;107596;-80
2023/09/23 05:02:04;;;;;;;3.20;2.90;;;;;;;16.52;92.44;99511.74;131080;1266;106791;-80
2023/09/23 05:05:11;;;;;;;3.30;3.00;;;;;;;16.55;92.46;99519.20;131304;1256;108358;-80
2023/09/23 05:08:17;;;;;;;3.30;3.00;;;;;;;16.57;92.67;99521.63;131242;1255;108259;-80
2023/09/23 05:11:23;;;;;;;3.10;2.30;;;;;;;16.55;92.73;99532.79;131166;1256;108754;-80
2023/09/23 05:14:29;;;;;;;2.00;1.80;;;;;;;16.56;92.81;99530.52;131145;1257;108937;-80
2023/09/23 05:17:35;;;;;;;2.80;2.10;;;;;;;16.58;92.63;99521.88;131136;1257;108473;-80
2023/09/23 05:20:42;;;;;;;1.60;1.50;;;;;;;16.60;92.70;99517.98;131202;1256;107629;-80
2023/09/23 05:23:49;;;;;;;2.10;1.60;;;;;;;16.60;93.30;99513.63;131188;1251;107156;-79
2023/09/23 05:26:55;;;;;;;2.20;1.60;;;;;;;16.58;92.95;99521.42;131099;1257;108129;-79
2023/09/23 05:30:03;;;;;;;2.10;1.50;;;;;;;16.67;93.00;99523.59;131031;1264;108646;-80
2023/09/23 05:33:10;;;;;;;2.10;1.80;;;;;;;16.75;93.31;99513.27;131167;1264;107698;-80
2023/09/23 05:36:17;;;;;;;2.70;1.70;;;;;;;16.68;94.22;99511.62;131262;1255;108590;-80
2023/09/23 05:39:23;;;;;;;3.70;1.80;;;;;;;16.60;94.94;99514.80;131096;1256;107636;-79
2023/09/23 05:42:30;;;;;;;2.10;1.90;;;;;;;16.57;94.10;99521.92;131082;1250;107675;-81
2023/09/23 05:45:37;;;;;;;1.90;1.50;;;;;;;16.63;93.94;99534.00;131185;1256;108878;-80
2023/09/23 05:48:43;;;;;;;2.30;1.70;;;;;;;16.72;93.67;99541.41;131163;1255;107727;-80
2023/09/23 05:51:52;;;;;;;3.70;1.50;;;;;;;16.80;93.59;99565.60;131222;1265;105762;-80
2023/09/23 05:54:58;;;;;;;2.20;1.80;;;;;;;16.90;93.60;99585.59;131267;1256;107536;-80
2023/09/23 05:58:03;;;;;;;2.10;1.90;;;;;;;17.02;93.26;99605.80;131446;1251;107786;-79
2023/09/23 06:01:09;;;;;;;2.20;2.00;;;;;;;17.09;93.08;99617.77;131111;1251;108705;-80
2023/09/23 06:04:15;;;;;;;2.70;2.20;;;;;;;17.05;93.26;99624.23;131238;1251;107594;-80
2023/09/23 06:07:20;;;;;;;3.10;2.60;;;;;;;16.95;93.39;99628.73;131097;1256;108534;-78
2023/09/23 06:10:26;;;;;;;3.70;2.60;;;;;;;16.96;93.18;99630.69;131073;1266;106969;-81
2023/09/23 06:13:32;;;;;;;4.80;3.30;;;;;;;17.00;93.17;99641.99;131106;1256;106781;-81
2023/09/23 06:16:37;;;;;;;4.10;3.70;;;;;;;17.07;93.14;99645.01;131333;1257;107815;-80
2023/09/23 06:19:43;;;;;;;6.70;4.40;;;;;;;17.03;93.20;99640.54;131557;1251;108629;-78
2023/09/23 06:22:48;;;;;;;5.60;4.60;;;;;;;17.07;93.09;99635.11;131067;1251;108082;-78
2023/09/23 06:25:57;;;;;;;7.40;5.40;;;;;;;17.15;93.02;99628.07;131173;1255;107102;-78
2023/09/23 06:29:04;;;;;;;7.50;5.90;;;;;;;17.07;93.28;99624.31;131263;1256;107756;-80
2023/09/23 06:32:10;;;;;;;7.20;6.50;;;;;;;17.06;93.49;99618.52;131246;1255;107495;-80
2023/09/23 06:35:16;;;;;;;6.90;5.50;;;;;;;17.15;93.65;99630.11;131223;1256;106405;-81
2023/09/23 06:38:23;;;;;;;6.10;4.90;;;;;;;17.20;93.42;99645.52;131293;1257;108709;-80
2023/09/23 06:41:30;;;;;;;7.00;5.70;;;;;;;17.22;93.24;99649.20;131240;1264;107483;-79
2023/09/23 06:44:37;;;;;;;7.40;6.00;;;;;;;17.23;93.22;99661.27;131063;1265;109460;-78
2023/09/23 06:47:44;;;;;;;7.30;5.70;;;;;;;17.17;93.82;99662.40;131543;1251;107198;-76
2023/09/23 06:51:00;;;;;;;6.10;4.80;;;;;;;17.09;94.01;99664.30;131105;1256;107569;-78
2023/09/23 06:54:07;;;;;;;5.10;4.60;;;;;;;17.08;93.91;99666.12;131235;1257;107565;-78
2023/09/23 06:57:14;;;;;;;5.30;4.80;;;;;;;17.18;93.63;99678.03;131070;1256;108691;-79
2023/09/23 07:00:22;;;;;;;5.40;4.60;;;;;;;17.25;93.35;99685.33;131160;1255;108126;-80
2023/09/23 07:03:28;;;;;;;4.80;4.30;;;;;;;17.31;92.88;99695.56;131108;1251;108367;-80
2023/09/23 07:06:34;;;;;;;4.20;3.40;;;;;;;17.35;92.75;99709.74;131113;1253;108523;-79
2023/09/23 07:09:40;;;;;;;3.70;3.30;;;;;;;17.45;92.76;99718.48;131089;1255;106825;-79
2023/09/23 07:12:45;;;;;;;4.10;3.60;;;;;;;17.64;92.54;99715.86;131086;1257;107501;-78
2023/09/23 07:15:51;;;;;;;5.50;3.60;;;;;;;17.78;91.90;99718.29;131038;1254;107010;-78
2023/09/23 07:18:59;;;;;;;4.60;3.70;;;;;;;17.81;91.52;99720.85;131015;1257;107702;-78
2023/09/23 07:22:05;;;;;;;4.00;3.60;;;;;;;17.84;91.31;99718.38;131014;1256;108403;-78
2023/09/23 07:25:11;;;;;;;3.40;3.00;;;;;;;17.83;90.96;99722.30;131242;1256;107624;-77
2023/09/23 07:28:16;;;;;;;3.00;2.70;;;;;;;17.81;90.50;99730.36;131033;1257;106957;-77
2023/09/23 07:31:22;;;;;;;3.00;2.60;;;;;;;17.76;90.16;99745.28;131056;1257;108376;-78
2023/09/23 07:34:28;;;;;;;4.60;2.80;;;;;;;17.78;90.56;99758.68;130995;1264;107873;-79
2023/09/23 07:37:34;;;;;;;3.30;2.70;;;;;;;17.92;91.06;99758.63;131161;1264;109363;-79
2023/09/23 07:40:40;;;;;;;3.50;2.80;;;;;;;18.16;90.70;99749.85;131074;1261;107066;-78
2023/09/23 07:43:48;;;;;;;3.30;2.60;;;;;;;18.36;89.72;99736.37;131011;1257;107104;-77
2023/09/23 07:46:54;;;;;;;5.80;3.30;;;;;;;18.58;89.24;99733.98;131111;1257;108713;-78
2023/09/23 07:50:00;;;;;;;5.40;3.30;;;;;;;18.63;87.34;99747.34;131037;1256;106935;-78
2023/09/23 07:53:06;;;;;;;5.70;3.40;;;;;;;18.64;87.89;99760.89;131112;1256;108568;-79
2023/09/23 07:56:11;;;;;;;5.00;3.20;;;;;;;18.64;87.56;99764.20;131020;1257;106923;-77
2023/09/23 07:59:17;;;;;;;4.60;2.90;;;;;;;18.58;86.49;99764.83;131079;1256;106671;-78
2023/09/23 08:02:22;;;;;;;5.70;3.10;;;;;;;18.49;87.58;99759.43;131002;1264;107605;-79
2023/09/23 08:05:29;;;;;;;4.60;2.80;;;;;;;18.53;87.01;99769.35;131004;1256;108649;-78
2023/09/23 08:08:35;;;;;;;4.70;3.00;;;;;;;18.54;86.43;99782.59;131111;1261;107982;-78
2023/09/23 08:11:40;;;;;;;5.20;3.60;;;;;;;18.57;87.43;99794.84;130990;1256;107687;-78
2023/09/23 08:14:46;;;;;;;6.40;3.70;;;;;;;18.68;86.91;99806.78;131110;1257;107666;-79
2023/09/23 08:17:51;;;;;;;6.80;4.20;;;;;;;18.73;85.73;99808.92;131233;1257;107125;-79
2023/09/23 08:21:00;;;;;;;7.10;4.80;;;;;;;18.69;84.84;99795.42;131016;1257;107767;-79
2023/09/23 08:24:06;;;;;;;6.70;4.10;;;;;;;18.71;84.72;99795.88;131064;1256;108723;-79
2023/09/23 08:27:12;;;;;;;7.90;4.60;;;;;;;18.82;84.54;99800.28;130969;1256;107656;-79
2023/09/23 08:30:18;;;;;;;9.30;4.60;;;;;;;18.98;85.24;99787.09;131035;1255;108443;-78
2023/09/23 08:33:24;;;;;;;7.00;4.20;;;;;;;19.07;82.68;99796.84;131006;1257;106792;-78
2023/09/23 08:36:31;;;;;;;6.20;3.80;;;;;;;19.00;82.72;99804.24;131058;1256;107023;-79
2023/09/23 08:39:36;;;;;;;7.60;4.30;;;;;;;19.04;83.77;99807.79;131311;1258;106819;-78
2023/09/23 08:42:42;;;;;;;7.90;4.90;;;;;;;19.01;82.62;99806.44;131142;1257;106790;-78
2023/09/23 08:45:48;;;;;;;7.80;4.10;;;;;;;18.92;82.27;99808.29;132402;1254;106516;-81
2023/09/23 08:48:54;;;;;;;6.70;4.00;;;;;;;18.89;82.47;99816.13;131906;1251;107684;-78
2023/09/23 08:52:00;;;;;;;6.90;4.40;;;;;;;18.78;82.53;99811.08;131196;1256;107822;-78
2023/09/23 08:55:11;;;;;;;7.60;4.60;;;;;;;18.63;82.61;99804.03;130995;1264;107370;-78
2023/09/23 08:58:17;;;;;;;8.20;4.70;;;;;;;18.51;83.57;99812.13;131051;1264;107264;-77
2023/09/23 09:01:23;;;;;;;7.90;4.90;;;;;;;18.49;83.65;99815.47;131077;1257;106743;-78
2023/09/23 09:04:28;;;;;;;7.30;4.50;;;;;;;18.45;83.40;99819.60;131068;1257;107811;-78
2023/09/23 09:07:36;;;;;;;7.50;4.60;;;;;;;18.41;83.22;99818.28;131161;1263;106850;-79
2023/09/23 09:10:43;;;;;;;6.10;4.00;;;;;;;18.43;83.62;99813.00;131190;1263;108645;-77
2023/09/23 09:13:50;;;;;;;6.00;3.70;;;;;;;18.50;83.86;99814.39;131249;1256;107736;-80
2023/09/23 09:16:55;;;;;;;6.10;4.00;;;;;;;18.61;84.00;99820.44;131041;1257;106636;-77
2023/09/23 09:20:08;;;;;;;5.50;3.30;;;;;;;18.63;82.84;99830.23;131215;1255;107624;-78
2023/09/23 09:23:16;;;;;;;5.40;4.00;;;;;;;18.61;82.98;99834.80;131096;1257;107539;-78
2023/09/23 09:26:23;;;;;;;4.50;3.80;;;;;;;18.58;83.55;99832.54;131024;1264;106636;-78
2023/09/23 09:29:29;;;;;;;5.20;3.20;;;;;;;18.63;83.99;99835.50;131023;1264;107679;-77
2023/09/23 09:32:36;;;;;;;4.60;2.90;;;;;;;18.76;83.72;99830.73;130974;1260;108148;-77
2023/09/23 09:35:42;;;;;;;3.40;2.80;;;;;;;18.93;83.34;99832.16;131038;1264;107542;-77
2023/09/23 09:38:52;;;;;;;4.30;3.10;;;;;;;19.07;82.60;99834.27;131087;1251;107703;-78
2023/09/23 09:42:02;;;;;;;3.90;2.50;;;;;;;19.19;82.92;99835.60;131012;1258;107080;-77
2023/09/23 09:45:13;;;;;;;3.70;3.10;;;;;;;19.31;81.96;99836.63;131068;1255;107800;-77
2023/09/23 09:48:21;;;;;;;5.70;4.10;;;;;;;19.28;82.04;99837.39;131018;1257;108085;-77
2023/09/23 09:51:28;;;;;;;3.90;3.20;;;;;;;19.16;80.01;99835.06;131111;1253;107641;-77
2023/09/23 09:54:36;;;;;;;3.90;3.10;;;;;;;19.06;81.12;99838.67;131080;1263;107805;-78
2023/09/23 09:57:42;;;;;;;4.80;3.00;;;;;;;19.03;81.14;99837.58;130975;1256;107558;-77
2023/09/23 10:00:50;;;;;;;3.80;3.20;;;;;;;19.07;81.44;99833.92;131050;1260;107616;-77
2023/09/23 10:03:56;;;;;;;3.80;2.90;;;;;;;19.03;80.25;99830.47;131804;1251;107749;-80
2023/09/23 10:07:06;;;;;;;4.00;3.30;;;;;;;19.05;81.48;99826.77;131134;1251;107826;-78
2023/09/23 10:10:14;;;;;;;5.60;3.70;;;;;;;19.13;80.58;99832.97;131059;1255;107719;-78
2023/09/23 10:13:23;;;;;;;3.70;3.10;;;;;;;19.17;80.50;99842.44;131029;1256;106932;-77
2023/09/23 10:16:29;;;;;;;4.00;3.10;;;;;;;19.28;80.46;99850.41;131687;1251;107754;-78
2023/09/23 10:19:38;;;;;;;3.70;3.00;;;;;;;19.36;79.77;99856.61;131446;1251;107571;-78
2023/09/23 10:22:53;;;;;;;4.30;3.00;;;;;;;19.40;79.24;99860.77;131154;1257;107575;-77
2023/09/23 10:25:58;;;;;;;6.80;4.30;;;;;;;19.41;78.03;99858.31;131061;1254;106831;-78
2023/09/23 10:29:06;;;;;;;5.50;4.00;;;;;;;19.42;78.28;99872.17;131047;1256;107636;-78
2023/09/23 10:32:15;;;;;;;3.70;3.10;;;;;;;19.41;78.75;99876.47;131031;1252;108106;-77
2023/09/23 10:35:26;;;;;;;4.50;3.20;;;;;;;19.51;79.94;99867.80;131044;1256;106588;-78
2023/09/23 10:38:34;;;;;;;4.10;3.10;;;;;;;19.68;79.26;99868.73;131050;1264;106869;-77
2023/09/23 10:41:40;;;;;;;6.10;4.10;;;;;;;19.64;77.39;99868.31;131101;1257;107691;-78
2023/09/23 10:44:48;;;;;;;7.00;4.00;;;;;;;19.55;77.61;99869.83;131058;1264;108726;-79
2023/09/23 10:47:54;;;;;;;5.50;3.70;;;;;;;19.45;77.33;99875.93;131089;1256;107671;-77
2023/09/23 10:51:00;;;;;;;5.20;3.80;;;;;;;19.38;77.33;99890.27;130989;1261;107331;-78
2023/09/23 10:54:06;;;;;;;4.50;3.70;;;;;;;19.33;77.88;99894.05;131025;1255;106820;-78
2023/09/23 10:57:13;;;;;;;4.30;3.30;;;;;;;19.34;78.80;99894.25;131022;1254;106487;-77
2023/09/23 11:00:21;;;;;;;4.10;3.10;;;;;;;19.33;78.46;99902.91;131011;1251;106584;-77
2023/09/23 11:03:28;;;;;;;4.80;2.80;;;;;;;19.28;79.32;99906.80;131041;1251;108396;-80
2023/09/23 11:06:34;;;;;;;3.60;2.80;;;;;;;19.39;79.73;99902.69;131083;1251;106763;-80
2023/09/23 11:09:40;;;;;;;2.90;2.40;;;;;;;19.53;79.47;99896.09;131219;1251;107664;-77
2023/09/23 11:12:47;;;;;;;2.80;2.20;;;;;;;19.61;79.05;99895.36;131455;1267;107831;-78
2023/09/23 11:15:53;;;;;;;2.60;2.10;;;;;;;19.60;78.27;99898.73;131159;1252;106627;-78
2023/09/23 11:19:08;;;;;;;3.00;2.20;;;;;;;19.52;78.55;99894.02;133455;1251;108716;-79
2023/09/23 11:22:22;;;;;;;2.80;2.20;;;;;;;19.53;78.91;99893.51;132876;1251;109377;-77
2023/09/23 11:25:28;;;;;;;2.60;1.80;;;;;;;19.55;78.73;99886.02;131022;1257;106820;-81
2023/09/23 11:28:34;;;;;;;1.90;1.70;;;;;;;19.63;79.36;99890.21;131061;1258;107879;-77
2023/09/23 11:31:39;;;;;;;2.00;1.60;;;;;;;19.75;79.34;99896.94;130994;1251;107146;-76
2023/09/23 11:34:45;;;;;;;2.10;1.80;;;;;;;19.97;79.97;99895.36;131011;1251;107662;-77
2023/09/23 11:37:53;;;;;;;2.20;2.00;;;;;;;20.10;78.06;99892.77;131342;1256;108554;-76
2023/09/23 11:41:00;;;;;;;2.50;1.70;;;;;;;20.15;78.79;99893.80;131120;1251;107893;-77
2023/09/23 11:44:07;;;;;;;2.00;1.80;;;;;;;20.27;79.36;99892.30;131084;1254;107615;-79
2023/09/23 11:47:14;;;;;;;2.50;2.30;;;;;;;20.40;78.91;99888.25;130993;1258;105977;-76
2023/09/23 11:50:20;;;;;;;2.10;1.90;;;;;;;20.40;76.65;99890.89;131125;1251;106637;-77
2023/09/23 11:53:27;;;;;;;2.00;1.90;;;;;;;20.29;76.84;99896.17;131051;1254;108663;-77
2023/09/23 11:56:33;;;;;;;2.10;1.80;;;;;;;20.19;78.06;99901.67;131119;1256;106569;-77
2023/09/23 11:59:39;;;;;;;2.10;1.80;;;;;;;20.21;78.45;99905.08;131037;1251;108371;-76
2023/09/23 12:02:45;;;;;;;2.90;1.30;;;;;;;20.27;78.61;99910.66;131191;1257;106641;-77
2023/09/23 12:05:51;;;;;;;2.10;1.80;;;;;;;20.32;78.81;99919.86;131054;1254;108700;-77
2023/09/23 12:08:57;;;;;;;2.60;2.40;;;;;;;20.33;78.36;99917.03;131036;1255;106773;-77
2023/09/23 12:12:02;;;;;;;3.40;2.90;;;;;;;20.26;76.58;99921.48;131730;1251;107729;-77
2023/09/23 12:15:11;;;;;;;2.60;2.40;;;;;;;20.12;77.10;99921.83;131619;1251;107219;-77
2023/09/23 12:18:17;;;;;;;2.60;2.20;;;;;;;20.12;77.98;99923.65;131248;1251;108710;-78
2023/09/23 12:21:22;;;;;;;3.60;2.20;;;;;;;20.16;77.47;99932.51;130971;1266;106869;-77
2023/09/23 12:24:28;;;;;;;2.60;2.00;;;;;;;20.11;77.54;99936.42;130993;1256;106555;-77
2023/09/23 12:27:34;;;;;;;2.20;1.90;;;;;;;20.10;78.22;99942.56;130991;1257;107389;-78
2023/09/23 12:30:40;;;;;;;1.70;1.60;;;;;;;20.10;78.57;99949.43;131508;1254;107495;-80
2023/09/23 12:33:46;;;;;;;2.80;1.90;;;;;;;20.07;78.52;99949.52;131067;1255;109514;-76
2023/09/23 12:36:51;;;;;;;1.50;1.40;;;;;;;20.06;78.66;99951.70;131997;1251;106524;-77
2023/09/23 12:39:57;;;;;;;1.90;1.60;;;;;;;20.09;78.88;99958.27;131079;1254;107639;-77
2023/09/23 12:43:02;;;;;;;2.20;1.60;;;;;;;20.10;78.70;99954.85;131520;1255;108854;-79
2023/09/23 12:46:15;;;;;;;1.90;1.70;;;;;;;20.13;78.90;99957.62;131169;1251;108657;-78
2023/09/23 12:49:20;;;;;;;2.90;1.70;;;;;;;20.13;78.83;99958.70;131448;1251;107714;-77
2023/09/23 12:52:26;;;;;;;2.10;1.60;;;;;;;20.11;78.69;99966.14;131058;1256;107283;-79
2023/09/23 12:55:32;;;;;;;2.30;2.00;;;;;;;20.07;78.60;99971.13;131202;1251;107759;-77
2023/09/23 12:58:39;;;;;;;2.70;1.70;;;;;;;20.04;78.69;99979.24;135133;1251;107998;-78
2023/09/23 13:01:44;;;;;;;2.00;1.80;;;;;;;19.99;78.70;99968.38;131194;1254;106328;-77
2023/09/23 13:04:49;;;;;;;2.40;1.80;;;;;;;19.94;78.38;99955.54;131041;1255;108047;-77
2023/09/23 13:07:55;;;;;;;2.20;2.00;;;;;;;19.78;77.93;99950.92;131085;1251;107670;-77
2023/09/23 13:11:01;;;;;;;2.40;1.90;;;;;;;19.67;78.35;99959.70;131048;1261;107763;-77
2023/09/23 13:14:07;;;;;;;2.80;2.20;;;;;;;19.59;78.35;99952.88;130998;1251;106746;-77
2023/09/23 13:17:13;;;;;;;3.70;2.50;;;;;;;19.52;78.42;99942.47;130996;1250;107702;-77
2023/09/23 13:20:19;;;;;;;2.50;2.30;;;;;;;19.44;78.64;99945.37;131002;1251;107781;-77
2023/09/23 13:23:25;;;;;;;2.90;2.30;;;;;;;19.37;79.20;99943.41;131027;1254;107082;-77
2023/09/23 13:26:30;;;;;;;4.90;2.10;;;;;;;19.42;79.53;99950.67;130992;1255;108376;-78
2023/09/23 13:29:36;;;;;;;3.60;2.10;;;;;;;19.47;79.55;99946.60;130966;1254;106987;-77
2023/09/23 13:32:41;;;;;;;2.40;2.20;;;;;;;19.51;79.67;99945.36;131003;1257;106989;-77
2023/09/23 13:35:47;;;;;;;2.40;2.20;;;;;;;19.51;79.76;99944.27;130990;1251;106488;-77
2023/09/23 13:38:53;;;;;;;3.20;2.80;;;;;;;19.54;79.77;99937.51;130981;1264;106326;-77
2023/09/23 13:41:58;;;;;;;2.80;2.30;;;;;;;19.49;79.69;99934.46;131032;1254;106199;-77
2023/09/23 13:45:05;;;;;;;2.70;2.20;;;;;;;19.45;79.92;99938.58;130957;1267;107392;-77
2023/09/23 13:48:11;;;;;;;4.20;2.50;;;;;;;19.49;79.97;99934.45;130999;1256;107606;-77
2023/09/23 13:51:17;;;;;;;2.70;2.50;;;;;;;19.44;79.72;99931.55;130827;1255;229516;-76
2023/09/23 13:54:22;;;;;;;3.30;2.20;;;;;;;19.37;80.02;99933.93;131013;1251;107850;-77
2023/09/23 13:57:28;;;;;;;4.00;3.10;;;;;;;19.34;80.37;99931.58;131012;1256;107582;-76
2023/09/23 14:00:34;;;;;;;2.90;2.50;;;;;;;19.34;80.46;99934.91;130977;1257;107788;-76
2023/09/23 14:03:40;;;;;;;2.90;2.50;;;;;;;19.32;80.69;99938.87;131014;1256;106955;-77
2023/09/23 14:06:46;;;;;;;4.80;3.00;;;;;;;19.35;80.71;99943.02;131004;1262;106668;-76
2023/09/23 14:09:51;;;;;;;3.30;2.70;;;;;;;19.34;80.77;99941.90;130980;1267;107742;-77
2023/09/23 14:12:57;;;;;;;4.90;2.80;;;;;;;19.33;80.78;99938.16;130917;1254;106912;-77
2023/09/23 14:16:02;;;;;;;3.40;2.70;;;;;;;19.30;80.98;99940.89;130939;1261;107475;-76
2023/09/23 14:19:08;;;;;;;4.20;2.90;;;;;;;19.25;81.10;99943.33;130964;1257;107788;-77